Sanar-5 — UBPI4 — position and weather

sailwx.info

Track history (hours):
 
Tides and Currents Weather Stations Pressure Air Temp Water Temp Dewpoint Dewpoint Depression Visibility Wind Speed Wind Dir Waves Ship Positions

Sanar-5

Last reported at 2017-Oct-21 17:52 UTC. Time now 2017-Oct-23 02:47 UTC.
Position N 45°29' E 036°43'.

Length 140 m; draft 2.9 m.

Type: Tanker. MMSI: 273350860.

Date/timePositionNaut miles runAvg speedWind from/ knotsBaromVisibWave heightAir tempDewpointWater temp
2017-Oct-21 17:52N 45°29' E 036°43'2 6.7
2017-Oct-21 17:30N 45°27' E 036°42'3 6.8
2017-Oct-21 17:00N 45°24' E 036°41'3 6.8
2017-Oct-21 16:30N 45°21' E 036°38'4 7.9
2017-Oct-21 15:59N 45°19' E 036°32'5 0.2
2017-Oct-20 13:16N 45°15' E 036°28'2 5.5
2017-Oct-20 12:59N 45°17' E 036°28'3 5.4
2017-Oct-20 12:30N 45°19' E 036°31'3 6.5
2017-Oct-20 12:01N 45°20' E 036°35'3 6.4
2017-Oct-20 11:31N 45°21' E 036°39'3 6.6
2017-Oct-20 11:01N 45°24' E 036°41'2 4.7
2017-Oct-20 10:31N 45°27' E 036°40'2 3.2
2017-Oct-20 09:59N 45°28' E 036°38'0 0.1
2017-Oct-20 09:29N 45°28' E 036°38'0 0.0
2017-Oct-20 08:59N 45°28' E 036°38'0 0.0
2017-Oct-20 08:29N 45°28' E 036°38'0 0.0
2017-Oct-20 07:59N 45°28' E 036°38'0 0.1
2017-Oct-20 07:29N 45°28' E 036°38'2 4.5
2017-Oct-20 06:59N 45°29' E 036°41'  
2017-Oct-15 16:34N 45°29' E 036°43'2 6.1
2017-Oct-15 16:19N 45°27' E 036°43'2 6.4
2017-Oct-15 16:00N 45°25' E 036°42'3 6.9
2017-Oct-15 15:31N 45°22' E 036°40'4 7.7
2017-Oct-15 15:00N 45°20' E 036°36'5 0.1
2017-Oct-13 14:54N 45°18' E 036°29'2 5.4
2017-Oct-13 14:30N 45°19' E 036°32'3 5.6
2017-Oct-13 14:00N 45°20' E 036°36'3 5.2
2017-Oct-13 13:31N 45°21' E 036°39'3 6.0
2017-Oct-13 13:01N 45°24' E 036°40'3 6.3
2017-Oct-13 12:31N 45°27' E 036°41'2 4.4
2017-Oct-13 12:01N 45°29' E 036°41'2 0.5
2017-Oct-13 07:30N 45°31' E 036°39'3 4.6
2017-Oct-13 06:57N 45°32' E 036°42'  
Track history (hours):
 
Tides and Currents Weather Stations Pressure Air Temp Water Temp Dewpoint Dewpoint Depression Visibility Wind Speed Wind Dir Waves Ship Positions

Sanar-5

Last reported at 2017-Oct-21 17:52 UTC. Time now 2017-Oct-23 02:47 UTC.
Position N 45°29' E 036°43'.

Length 140 m; draft 2.9 m.

Type: Tanker. MMSI: 273350860.

Date/timePositionNaut miles runAvg speedWind from/ knotsBaromVisibWave heightAir tempDewpointWater temp
2017-Oct-21 17:52N 45°29' E 036°43'2 6.7
2017-Oct-21 17:30N 45°27' E 036°42'3 6.8
2017-Oct-21 17:00N 45°24' E 036°41'3 6.8
2017-Oct-21 16:30N 45°21' E 036°38'4 7.9
2017-Oct-21 15:59N 45°19' E 036°32'5 0.2
2017-Oct-20 13:16N 45°15' E 036°28'2 5.5
2017-Oct-20 12:59N 45°17' E 036°28'3 5.4
2017-Oct-20 12:30N 45°19' E 036°31'3 6.5
2017-Oct-20 12:01N 45°20' E 036°35'3 6.4
2017-Oct-20 11:31N 45°21' E 036°39'3 6.6
2017-Oct-20 11:01N 45°24' E 036°41'2 4.7
2017-Oct-20 10:31N 45°27' E 036°40'2 3.2
2017-Oct-20 09:59N 45°28' E 036°38'0 0.1
2017-Oct-20 09:29N 45°28' E 036°38'0 0.0
2017-Oct-20 08:59N 45°28' E 036°38'0 0.0
2017-Oct-20 08:29N 45°28' E 036°38'0 0.0
2017-Oct-20 07:59N 45°28' E 036°38'0 0.1
2017-Oct-20 07:29N 45°28' E 036°38'2 4.5
2017-Oct-20 06:59N 45°29' E 036°41'  
2017-Oct-15 16:34N 45°29' E 036°43'2 6.1
2017-Oct-15 16:19N 45°27' E 036°43'2 6.4
2017-Oct-15 16:00N 45°25' E 036°42'3 6.9
2017-Oct-15 15:31N 45°22' E 036°40'4 7.7
2017-Oct-15 15:00N 45°20' E 036°36'5 0.1
2017-Oct-13 14:54N 45°18' E 036°29'2 5.4
2017-Oct-13 14:30N 45°19' E 036°32'3 5.6
2017-Oct-13 14:00N 45°20' E 036°36'3 5.2
2017-Oct-13 13:31N 45°21' E 036°39'3 6.0
2017-Oct-13 13:01N 45°24' E 036°40'3 6.3
2017-Oct-13 12:31N 45°27' E 036°41'2 4.4
2017-Oct-13 12:01N 45°29' E 036°41'2 0.5
2017-Oct-13 07:30N 45°31' E 036°39'3 4.6
2017-Oct-13 06:57N 45°32' E 036°42'  

Dump ship's entire track history